createdAt,value
2022-12-02T00:04:22.926Z,13.65
2022-12-02T00:12:34.848Z,13.43
2022-12-02T00:20:40.229Z,13.55
2022-12-02T00:28:48.138Z,15.38
2022-12-02T00:36:53.451Z,14.57
2022-12-02T00:45:13.681Z,15.68
2022-12-02T00:53:19.021Z,14.55
2022-12-02T01:01:27.805Z,15.45
2022-12-02T01:09:33.269Z,15.60
2022-12-02T01:17:41.333Z,15.88
2022-12-02T01:25:46.793Z,15.57
2022-12-02T01:33:54.661Z,16.67
2022-12-02T01:42:00.071Z,16.08
2022-12-02T01:50:09.598Z,16.48
2022-12-02T01:58:15.757Z,20.48
2022-12-02T02:06:24.137Z,23.52
2022-12-02T02:14:29.627Z,23.20
2022-12-02T02:22:43.898Z,20.85
2022-12-02T02:30:52.254Z,20.80
2022-12-02T02:38:58.159Z,23.40
2022-12-02T02:47:06.730Z,19.42
2022-12-02T02:55:13.956Z,21.83
2022-12-02T03:03:24.694Z,23.02
2022-12-02T03:11:31.301Z,23.65
2022-12-02T03:19:39.958Z,25.42
2022-12-02T03:27:45.434Z,23.33
2022-12-02T03:35:53.793Z,21.33
2022-12-02T03:44:00.233Z,20.15
2022-12-02T03:52:08.569Z,19.67
2022-12-02T04:00:16.513Z,17.35
2022-12-02T04:08:24.541Z,17.75
2022-12-02T04:16:29.840Z,15.77
2022-12-02T04:24:37.749Z,14.05
2022-12-02T04:32:43.113Z,13.23
2022-12-02T04:40:50.966Z,13.68
2022-12-02T04:48:56.255Z,12.77
2022-12-02T04:57:04.118Z,12.18
2022-12-02T05:05:10.686Z,15.15
2022-12-02T05:13:19.010Z,14.85
2022-12-02T05:21:24.591Z,14.43
2022-12-02T05:29:32.750Z,13.65
2022-12-02T05:37:43.778Z,12.63
2022-12-02T05:45:56.611Z,13.38
2022-12-02T05:54:02.242Z,13.45
2022-12-02T06:02:25.391Z,12.40
2022-12-02T06:10:32.434Z,13.17
2022-12-02T06:18:43.098Z,12.75
2022-12-02T06:26:48.405Z,12.00
2022-12-02T06:34:56.782Z,11.57
2022-12-02T06:43:03.734Z,11.90
2022-12-02T06:51:19.185Z,10.95
2022-12-02T06:59:26.206Z,11.20
2022-12-02T07:07:35.792Z,11.23
2022-12-02T07:15:41.418Z,11.73
2022-12-02T07:23:49.349Z,12.55
2022-12-02T07:31:54.765Z,11.40
2022-12-02T07:40:02.803Z,11.18
2022-12-02T07:48:08.923Z,12.45
2022-12-02T07:56:17.082Z,31.48
2022-12-02T08:04:25.041Z,15.63
2022-12-02T08:12:33.038Z,13.45
2022-12-02T08:20:38.368Z,11.70
2022-12-02T08:28:50.859Z,12.05
2022-12-02T08:36:59.155Z,11.32
2022-12-02T10:22:25.640Z,16.02
2022-12-02T10:30:31.871Z,15.00
2022-12-02T10:38:47.455Z,18.88
2022-12-02T10:46:52.849Z,18.05
2022-12-02T10:55:03.557Z,20.52
2022-12-02T11:03:09.603Z,18.90
2022-12-02T11:11:39.233Z,17.45
2022-12-02T11:19:49.733Z,17.63
2022-12-02T11:28:34.009Z,17.02
2022-12-02T11:36:39.624Z,18.20
2022-12-02T11:44:47.589Z,19.05
2022-12-02T11:52:56.781Z,19.65
2022-12-02T12:01:16.486Z,20.27
2022-12-02T12:09:21.936Z,18.40
2022-12-02T12:17:48.897Z,18.83
2022-12-02T12:25:54.334Z,19.15
2022-12-02T12:34:02.505Z,18.48
2022-12-02T12:42:10.300Z,18.40
2022-12-02T12:50:18.764Z,19.52
2022-12-02T12:58:26.673Z,22.65
2022-12-02T13:06:41.802Z,20.13
2022-12-02T13:14:50.080Z,22.05
2022-12-02T13:23:03.689Z,19.88
2022-12-02T13:31:09.243Z,19.08
2022-12-02T13:39:17.599Z,17.92
2022-12-02T13:47:22.972Z,18.60
2022-12-02T13:55:30.983Z,19.20
2022-12-02T14:03:37.179Z,16.70
2022-12-02T14:11:46.769Z,17.08
2022-12-02T14:19:54.057Z,18.80
2022-12-02T14:28:02.801Z,17.65
2022-12-02T14:36:08.616Z,27.23
2022-12-02T14:44:16.548Z,19.40
2022-12-02T14:52:22.899Z,18.05
2022-12-02T15:00:30.865Z,18.67
2022-12-02T15:08:36.254Z,19.02
2022-12-02T15:16:44.502Z,15.52
2022-12-02T15:24:50.096Z,16.63
2022-12-02T15:32:58.394Z,15.63
2022-12-02T15:41:03.932Z,18.92
2022-12-02T15:49:18.886Z,17.05
2022-12-02T15:57:24.236Z,18.25
2022-12-02T16:05:32.984Z,21.60
2022-12-02T16:13:40.028Z,22.17
2022-12-02T16:21:48.120Z,26.98
2022-12-02T16:29:56.045Z,35.20
2022-12-02T16:38:04.955Z,33.08
2022-12-02T16:46:12.191Z,27.38
2022-12-02T16:54:20.175Z,22.73
2022-12-02T17:02:31.778Z,21.67
2022-12-02T17:10:40.214Z,24.40
2022-12-02T17:18:45.634Z,23.08
2022-12-02T17:26:55.908Z,19.40
2022-12-02T17:35:01.448Z,16.70
2022-12-02T17:43:09.794Z,16.88
2022-12-02T17:51:16.585Z,21.83
2022-12-02T17:59:24.578Z,28.20
2022-12-02T18:07:31.342Z,28.38
2022-12-02T18:15:39.740Z,27.23
2022-12-02T18:23:45.200Z,30.50
2022-12-02T18:31:53.162Z,27.20
2022-12-02T18:39:59.169Z,31.02
2022-12-02T18:48:07.201Z,32.22
2022-12-02T18:56:12.729Z,27.10
2022-12-02T19:04:21.206Z,25.60
2022-12-02T19:12:42.504Z,26.60
2022-12-02T19:20:50.666Z,28.63
2022-12-02T19:28:56.018Z,31.65
2022-12-02T19:37:04.793Z,30.30
2022-12-02T19:45:12.810Z,28.27
2022-12-02T19:53:20.878Z,30.98
2022-12-02T20:01:26.455Z,29.38
2022-12-02T20:09:34.614Z,31.95
2022-12-02T20:17:40.135Z,29.52
2022-12-02T20:25:49.096Z,29.83
2022-12-02T20:33:54.491Z,35.10
2022-12-02T20:42:02.663Z,41.83
2022-12-02T20:50:09.432Z,40.28
2022-12-02T20:58:17.572Z,45.47
2022-12-02T21:06:22.975Z,45.05
2022-12-02T21:14:31.222Z,41.42
2022-12-02T21:22:36.520Z,35.28
2022-12-02T21:30:44.619Z,40.20
2022-12-02T21:38:50.764Z,37.00
2022-12-02T21:47:01.118Z,37.75
2022-12-02T21:55:07.768Z,24.80
2022-12-02T22:03:15.822Z,24.77
2022-12-02T22:11:22.575Z,34.92
2022-12-02T22:19:30.692Z,35.60
2022-12-02T22:27:36.116Z,37.20
2022-12-02T22:35:43.963Z,36.47
2022-12-02T22:43:49.833Z,44.47
2022-12-02T22:52:00.077Z,46.95
2022-12-02T23:00:07.836Z,42.75
2022-12-02T23:08:16.215Z,42.42
2022-12-02T23:16:21.856Z,44.53
2022-12-02T23:24:29.930Z,41.33
2022-12-02T23:32:35.394Z,48.55
2022-12-02T23:40:43.737Z,45.53
2022-12-02T23:48:49.073Z,43.38
2022-12-02T23:56:57.053Z,48.03
